createdAt,value
2017-12-29T00:00:07.819Z,83.10
2017-12-29T00:01:35.000Z,83.24
2017-12-29T00:03:06.267Z,83.35
2017-12-29T00:04:29.537Z,83.54
2017-12-29T00:05:56.707Z,83.28
2017-12-29T00:07:23.947Z,83.10
2017-12-29T00:08:51.204Z,83.02
2017-12-29T00:10:18.462Z,83.27
2017-12-29T00:11:45.838Z,83.18
2017-12-29T00:13:16.860Z,83.03
2017-12-29T00:14:43.929Z,83.14
2017-12-29T00:16:11.061Z,83.21
2017-12-29T00:17:38.250Z,83.28
2017-12-29T00:19:05.457Z,83.45
2017-12-29T00:20:28.784Z,83.24
2017-12-29T00:22:00.066Z,83.24
2017-12-29T00:23:27.205Z,82.84
2017-12-29T00:24:54.464Z,82.67
2017-12-29T00:26:17.822Z,82.70
2017-12-29T00:27:48.984Z,82.57
2017-12-29T00:29:12.361Z,82.48
2017-12-29T00:30:39.487Z,82.38
2017-12-29T00:32:06.803Z,82.53
2017-12-29T00:33:33.970Z,82.58
2017-12-29T00:35:05.311Z,82.38
2017-12-29T00:36:28.561Z,82.43
2017-12-29T00:37:55.778Z,82.90
2017-12-29T00:39:27.027Z,83.17
2017-12-29T00:40:50.227Z,83.08
2017-12-29T00:42:21.439Z,82.46
2017-12-29T00:43:48.677Z,82.11
2017-12-29T00:45:11.639Z,82.23
2017-12-29T00:46:42.904Z,81.96
2017-12-29T00:48:06.157Z,81.78
2017-12-29T00:49:33.471Z,81.88
2017-12-29T00:51:00.736Z,82.10
2017-12-29T00:52:27.935Z,82.20
2017-12-29T00:53:55.126Z,82.10
2017-12-29T00:55:22.345Z,82.31
2017-12-29T00:56:49.475Z,82.53
2017-12-29T00:58:20.769Z,82.62
2017-12-29T00:59:44.107Z,82.54
2017-12-29T01:01:11.381Z,82.88
2017-12-29T01:02:42.555Z,83.01
2017-12-29T01:04:05.852Z,82.95
2017-12-29T01:05:37.073Z,82.94
2017-12-29T01:07:04.498Z,82.88
2017-12-29T01:08:31.646Z,82.87
2017-12-29T01:09:54.890Z,82.92
2017-12-29T01:11:22.256Z,82.53
2017-12-29T01:12:49.393Z,82.56
2017-12-29T01:14:16.699Z,82.17
2017-12-29T01:15:47.923Z,81.79
2017-12-29T01:17:11.053Z,82.03
2017-12-29T01:18:38.029Z,82.09
2017-12-29T01:20:09.357Z,82.15
2017-12-29T01:21:36.664Z,81.65
2017-12-29T01:22:59.951Z,81.74
2017-12-29T01:24:31.394Z,81.48
2017-12-29T01:25:58.542Z,81.48
2017-12-29T01:27:25.738Z,81.45
2017-12-29T01:28:48.860Z,81.27
2017-12-29T01:30:16.062Z,81.32
2017-12-29T01:31:47.206Z,81.56
2017-12-29T01:33:10.405Z,81.86
2017-12-29T01:34:41.550Z,81.99
2017-12-29T01:36:09.021Z,82.29
2017-12-29T01:37:32.436Z,82.14
2017-12-29T01:39:03.686Z,81.77
2017-12-29T01:40:26.703Z,82.14
2017-12-29T01:41:54.127Z,81.86
2017-12-29T01:43:25.468Z,81.56
2017-12-29T01:44:52.598Z,81.37
2017-12-29T01:46:15.655Z,81.17
2017-12-29T01:47:46.954Z,81.21
2017-12-29T01:49:14.059Z,81.15
2017-12-29T01:50:37.251Z,81.13
2017-12-29T01:52:04.407Z,81.28
2017-12-29T01:53:31.785Z,81.75
2017-12-29T01:54:59.018Z,81.52
2017-12-29T01:56:26.250Z,80.98
2017-12-29T01:57:53.620Z,80.53
2017-12-29T01:59:24.801Z,81.03
2017-12-29T02:00:52.105Z,80.85
2017-12-29T02:02:19.292Z,81.06
2017-12-29T02:03:42.438Z,81.23
2017-12-29T02:05:09.655Z,81.06
2017-12-29T02:06:40.700Z,81.09
2017-12-29T02:08:03.862Z,80.88
2017-12-29T02:09:35.244Z,80.81
2017-12-29T02:10:58.623Z,81.17
2017-12-29T02:12:26.112Z,81.29
2017-12-29T02:13:57.210Z,80.98
2017-12-29T02:15:24.505Z,80.91
2017-12-29T02:16:51.879Z,80.88
2017-12-29T02:18:19.157Z,81.14
2017-12-29T02:19:46.441Z,80.98
2017-12-29T02:21:09.555Z,81.07
2017-12-29T02:22:40.746Z,81.11
2017-12-29T02:24:08.036Z,81.62
2017-12-29T02:25:31.329Z,81.32
2017-12-29T02:26:58.743Z,81.21
2017-12-29T02:28:25.852Z,81.50
2017-12-29T02:29:53.087Z,81.38
2017-12-29T02:31:20.565Z,81.48
2017-12-29T02:32:47.699Z,81.54
2017-12-29T02:34:19.063Z,81.73
2017-12-29T02:35:45.998Z,81.92
2017-12-29T02:37:08.716Z,81.74
2017-12-29T02:38:35.971Z,81.71
2017-12-29T02:40:03.328Z,81.56
2017-12-29T02:41:30.563Z,81.79
2017-12-29T02:42:57.890Z,81.71
2017-12-29T02:44:25.081Z,81.66
2017-12-29T02:45:52.317Z,81.39
2017-12-29T02:47:19.635Z,81.59
2017-12-29T02:48:46.838Z,81.45
2017-12-29T02:50:14.130Z,81.39
2017-12-29T02:51:41.332Z,80.88
2017-12-29T02:53:12.495Z,81.24
2017-12-29T02:54:35.750Z,81.23
2017-12-29T02:56:03.084Z,81.13
2017-12-29T02:57:30.260Z,81.24
2017-12-29T02:58:57.616Z,81.54
2017-12-29T03:00:24.931Z,81.44
2017-12-29T03:01:52.280Z,81.43
2017-12-29T03:03:19.522Z,80.94
2017-12-29T03:04:46.833Z,81.25
2017-12-29T03:06:13.960Z,81.28
2017-12-29T03:07:45.125Z,81.25
2017-12-29T03:09:12.007Z,81.25
2017-12-29T03:10:35.422Z,81.17
2017-12-29T03:11:59.717Z,81.26
2017-12-29T03:13:30.113Z,81.30
2017-12-29T03:15:01.454Z,80.95
2017-12-29T03:16:24.813Z,81.44
2017-12-29T03:17:52.169Z,81.50
2017-12-29T03:19:23.244Z,81.27
2017-12-29T03:20:50.377Z,81.15
2017-12-29T03:22:13.576Z,81.00
2017-12-29T03:23:40.932Z,80.95
2017-12-29T03:25:08.060Z,81.20
2017-12-29T03:26:39.288Z,81.31
2017-12-29T03:28:02.635Z,80.84
2017-12-29T03:29:29.940Z,81.03
2017-12-29T03:31:01.359Z,80.63
2017-12-29T03:32:24.605Z,80.30
2017-12-29T03:33:55.819Z,80.61
2017-12-29T03:35:18.957Z,80.47
2017-12-29T03:36:46.313Z,80.58
2017-12-29T03:38:13.598Z,80.19
2017-12-29T03:39:40.823Z,80.18
2017-12-29T03:41:08.264Z,80.37
2017-12-29T03:42:39.332Z,80.18
2017-12-29T03:44:02.759Z,80.32
2017-12-29T03:45:33.980Z,79.79
2017-12-29T03:46:57.280Z,79.86
2017-12-29T03:48:24.568Z,80.04
2017-12-29T03:49:55.792Z,80.22
2017-12-29T03:51:23.087Z,80.34
2017-12-29T03:52:46.292Z,80.50
2017-12-29T03:54:17.587Z,80.22
2017-12-29T03:55:40.751Z,80.18
2017-12-29T03:57:08.093Z,80.08
2017-12-29T03:58:39.356Z,79.86
2017-12-29T04:00:02.901Z,79.82
2017-12-29T04:01:30.180Z,79.57
2017-12-29T04:02:57.501Z,79.45
2017-12-29T04:04:24.790Z,79.46
2017-12-29T04:05:51.945Z,79.71
2017-12-29T04:07:23.063Z,79.64
2017-12-29T04:08:46.341Z,79.81
2017-12-29T04:10:17.662Z,79.78
2017-12-29T04:11:45.031Z,79.69
2017-12-29T04:13:11.971Z,79.65
2017-12-29T04:14:39.053Z,79.70
2017-12-29T04:16:02.303Z,79.71
2017-12-29T04:17:33.432Z,79.54
2017-12-29T04:19:00.651Z,79.38
2017-12-29T04:20:23.805Z,79.55
2017-12-29T04:21:55.104Z,79.42
2017-12-29T04:23:18.370Z,79.23
2017-12-29T04:24:45.688Z,79.20
2017-12-29T04:26:17.019Z,79.18
2017-12-29T04:27:40.126Z,79.00
2017-12-29T04:29:07.511Z,79.07
2017-12-29T04:30:34.988Z,78.92
2017-12-29T04:32:02.235Z,78.97
2017-12-29T04:33:29.431Z,78.91
2017-12-29T04:34:56.545Z,78.95
2017-12-29T04:36:27.924Z,78.82
2017-12-29T04:37:55.222Z,78.89
2017-12-29T04:39:18.376Z,78.92
2017-12-29T04:40:45.692Z,78.87
2017-12-29T04:42:12.906Z,78.81
2017-12-29T04:43:40.094Z,78.93
2017-12-29T04:45:11.456Z,78.96
2017-12-29T04:46:34.706Z,79.31
2017-12-29T04:48:01.987Z,79.42
2017-12-29T04:49:29.191Z,79.35
2017-12-29T04:50:56.610Z,79.60
2017-12-29T04:52:23.917Z,79.42
2017-12-29T04:53:51.082Z,79.92
2017-12-29T04:55:18.439Z,79.99
2017-12-29T04:56:45.791Z,79.69
2017-12-29T04:58:12.987Z,79.84
2017-12-29T04:59:44.244Z,79.83
2017-12-29T05:01:07.641Z,79.67
2017-12-29T05:02:38.901Z,79.78
2017-12-29T05:04:02.222Z,79.93
2017-12-29T05:05:29.645Z,79.74
2017-12-29T05:06:57.160Z,79.56
2017-12-29T05:08:28.261Z,79.77
2017-12-29T05:09:51.581Z,79.58
2017-12-29T05:11:18.799Z,79.50
2017-12-29T05:12:50.101Z,79.67
2017-12-29T05:14:17.429Z,79.86
2017-12-29T05:15:40.687Z,79.81
2017-12-29T05:17:08.109Z,79.85
2017-12-29T05:18:35.422Z,79.70
2017-12-29T05:20:02.809Z,79.67
2017-12-29T05:21:30.233Z,79.71
2017-12-29T05:22:57.453Z,79.73
2017-12-29T05:24:28.607Z,79.73
2017-12-29T05:25:51.781Z,79.63
2017-12-29T05:27:22.877Z,79.40
2017-12-29T05:28:46.249Z,79.73
2017-12-29T05:30:13.496Z,79.65
2017-12-29T05:31:40.646Z,79.56
2017-12-29T05:33:11.739Z,79.75
2017-12-29T05:34:35.102Z,80.01
2017-12-29T05:36:02.125Z,79.80
2017-12-29T05:37:33.142Z,79.79
2017-12-29T05:38:56.476Z,79.83
2017-12-29T05:40:27.767Z,79.86
2017-12-29T05:41:50.896Z,79.78
2017-12-29T05:43:18.076Z,79.74
2017-12-29T05:44:49.378Z,79.76
2017-12-29T05:46:16.687Z,79.86
2017-12-29T05:47:39.845Z,79.77
2017-12-29T05:49:07.182Z,79.58
2017-12-29T05:50:38.274Z,79.58
2017-12-29T05:52:01.672Z,79.48
2017-12-29T05:53:28.800Z,79.27
2017-12-29T05:54:56.217Z,79.32
2017-12-29T05:56:23.526Z,79.17
2017-12-29T05:57:54.647Z,79.24
2017-12-29T05:59:22.005Z,79.02
2017-12-29T06:00:45.130Z,79.16
2017-12-29T06:02:12.288Z,79.33
2017-12-29T06:03:43.608Z,79.22
2017-12-29T06:05:10.669Z,79.36
2017-12-29T06:06:33.907Z,79.53
2017-12-29T06:08:01.122Z,79.42
2017-12-29T06:09:28.482Z,79.40
2017-12-29T06:10:55.848Z,79.16
2017-12-29T06:12:26.947Z,79.08
2017-12-29T06:13:54.285Z,79.20
2017-12-29T06:15:17.677Z,79.39
2017-12-29T06:16:48.979Z,79.40
2017-12-29T06:18:12.328Z,79.43
2017-12-29T06:19:43.406Z,79.21
2017-12-29T06:21:06.809Z,79.62
2017-12-29T06:22:34.104Z,79.29
2017-12-29T06:24:01.332Z,79.32
2017-12-29T06:25:28.613Z,79.39
2017-12-29T06:26:55.800Z,78.97
2017-12-29T06:28:22.954Z,79.44
2017-12-29T06:29:50.023Z,79.46
2017-12-29T06:31:21.252Z,79.39
2017-12-29T06:32:44.439Z,79.04
2017-12-29T06:34:15.593Z,78.92
2017-12-29T06:35:38.945Z,79.16
2017-12-29T06:37:06.189Z,79.26
2017-12-29T06:38:33.529Z,79.21
2017-12-29T06:40:00.836Z,79.77
2017-12-29T06:41:28.045Z,80.02
2017-12-29T06:42:55.383Z,79.86
2017-12-29T06:44:22.625Z,79.66
2017-12-29T06:45:49.983Z,79.70
2017-12-29T06:47:21.247Z,79.39
2017-12-29T06:48:48.551Z,79.44
2017-12-29T06:50:11.916Z,79.57
2017-12-29T06:51:39.236Z,79.64
2017-12-29T06:53:06.429Z,80.05
2017-12-29T06:54:37.635Z,80.09
2017-12-29T06:56:00.872Z,79.53
2017-12-29T06:57:32.220Z,79.46
2017-12-29T06:58:59.514Z,79.63
2017-12-29T07:00:26.660Z,79.76
2017-12-29T07:01:53.904Z,79.99
2017-12-29T07:03:17.362Z,80.15
2017-12-29T07:04:44.463Z,80.07
2017-12-29T07:06:11.717Z,79.97
2017-12-29T07:07:39.028Z,80.29
2017-12-29T07:09:10.368Z,80.29
2017-12-29T07:10:37.665Z,80.43
2017-12-29T07:12:04.973Z,80.37
2017-12-29T07:13:28.347Z,80.73
2017-12-29T07:14:55.631Z,80.54
2017-12-29T07:16:27.057Z,80.68
2017-12-29T07:17:50.144Z,80.81
2017-12-29T07:19:17.530Z,80.79
2017-12-29T07:20:44.805Z,80.80
2017-12-29T07:22:12.037Z,81.30
2017-12-29T07:23:39.257Z,80.80
2017-12-29T07:25:10.502Z,80.44
2017-12-29T07:26:33.776Z,80.33
2017-12-29T07:28:00.990Z,80.51
2017-12-29T07:29:28.363Z,80.13
2017-12-29T07:30:55.660Z,80.00
2017-12-29T07:32:27.002Z,79.89
2017-12-29T07:33:50.138Z,79.86
2017-12-29T07:35:17.375Z,80.10
2017-12-29T07:36:44.696Z,79.95
2017-12-29T07:38:11.742Z,80.44
2017-12-29T07:39:38.888Z,80.38
2017-12-29T07:41:06.244Z,80.23
2017-12-29T07:42:37.565Z,80.12
2017-12-29T07:44:01.023Z,80.34
2017-12-29T07:45:28.082Z,80.09
2017-12-29T07:46:59.316Z,80.31
2017-12-29T07:48:22.543Z,80.61
2017-12-29T07:49:53.663Z,80.53
2017-12-29T07:51:16.775Z,80.48
2017-12-29T07:52:43.834Z,80.87
2017-12-29T07:54:11.093Z,80.33
2017-12-29T07:55:38.177Z,80.26
2017-12-29T07:57:05.395Z,80.23
2017-12-29T07:58:32.415Z,80.80
2017-12-29T07:59:59.749Z,81.01
2017-12-29T08:01:27.033Z,81.08
2017-12-29T08:02:54.160Z,81.55
2017-12-29T08:04:21.328Z,81.17
2017-12-29T08:05:48.609Z,81.37
2017-12-29T08:07:15.816Z,81.27
2017-12-29T08:08:47.109Z,81.37
2017-12-29T08:10:10.224Z,81.07
2017-12-29T08:11:41.574Z,81.36
2017-12-29T08:13:04.897Z,80.95
2017-12-29T08:14:35.936Z,80.37
2017-12-29T08:16:03.180Z,80.40
2017-12-29T08:17:30.460Z,80.44
2017-12-29T08:18:53.564Z,80.39
2017-12-29T08:20:20.869Z,79.84
2017-12-29T08:21:48.138Z,79.70
2017-12-29T08:23:19.425Z,79.46
2017-12-29T08:24:46.678Z,79.34
2017-12-29T08:26:13.998Z,79.83
2017-12-29T08:27:41.117Z,79.42
2017-12-29T08:29:04.313Z,79.53
2017-12-29T08:30:31.615Z,79.25
2017-12-29T08:31:58.726Z,78.97
2017-12-29T08:33:29.984Z,79.34
2017-12-29T08:34:56.913Z,79.60
2017-12-29T08:36:20.132Z,79.19
2017-12-29T08:37:47.416Z,79.35
2017-12-29T08:39:14.586Z,79.73
2017-12-29T08:40:41.800Z,79.61
2017-12-29T08:42:12.880Z,79.43
2017-12-29T08:43:36.177Z,79.69
2017-12-29T08:45:03.436Z,79.27
2017-12-29T08:46:34.890Z,79.61
2017-12-29T08:47:58.120Z,79.80
2017-12-29T08:49:29.236Z,79.73
2017-12-29T08:50:56.537Z,79.39
2017-12-29T08:52:19.791Z,79.28
2017-12-29T08:53:51.032Z,79.55
2017-12-29T08:55:18.367Z,79.69
2017-12-29T08:56:45.554Z,79.49
2017-12-29T08:58:08.820Z,79.37
2017-12-29T08:59:35.803Z,79.47
2017-12-29T09:01:07.221Z,79.78
2017-12-29T09:02:30.467Z,79.20
2017-12-29T09:03:57.520Z,79.14
2017-12-29T09:05:24.733Z,79.00
2017-12-29T09:06:56.034Z,79.41
2017-12-29T09:08:19.200Z,79.20
2017-12-29T09:09:46.444Z,79.17
2017-12-29T09:11:13.557Z,79.39
2017-12-29T09:12:40.681Z,79.52
2017-12-29T09:14:11.900Z,79.61
2017-12-29T09:15:35.148Z,79.59
2017-12-29T09:17:02.371Z,79.78
2017-12-29T09:18:29.456Z,79.65
2017-12-29T09:19:56.760Z,80.14
2017-12-29T09:21:28.045Z,80.10
2017-12-29T09:22:51.210Z,80.14
2017-12-29T09:24:18.495Z,80.26
2017-12-29T09:25:49.916Z,80.32
2017-12-29T09:27:12.940Z,80.60
2017-12-29T09:28:40.246Z,80.52
2017-12-29T09:30:07.432Z,80.79
2017-12-29T09:31:38.545Z,80.74
2017-12-29T09:33:01.797Z,81.06
2017-12-29T09:34:29.110Z,81.04
2017-12-29T09:36:00.334Z,81.51
2017-12-29T09:37:27.525Z,81.27
2017-12-29T09:38:54.751Z,81.69
2017-12-29T09:40:22.002Z,81.71
2017-12-29T09:41:45.300Z,81.63
2017-12-29T09:43:12.514Z,81.52
2017-12-29T09:44:39.705Z,81.46
2017-12-29T09:46:06.914Z,81.14
2017-12-29T09:47:38.087Z,80.86
2017-12-29T09:49:01.535Z,81.31
2017-12-29T09:50:32.887Z,80.96
2017-12-29T09:51:56.176Z,81.02
2017-12-29T09:53:23.191Z,80.85
2017-12-29T09:54:50.276Z,80.81
2017-12-29T09:56:21.556Z,80.71
2017-12-29T09:57:48.771Z,80.93
2017-12-29T09:59:11.590Z,80.91
2017-12-29T10:00:38.536Z,80.57
2017-12-29T10:02:05.795Z,80.42
2017-12-29T10:03:32.874Z,80.87
2017-12-29T10:05:04.255Z,80.44
2017-12-29T10:06:27.510Z,80.59
2017-12-29T10:07:58.793Z,80.42
2017-12-29T10:09:22.122Z,80.59
2017-12-29T10:10:49.396Z,80.63
2017-12-29T10:12:16.593Z,80.36
2017-12-29T10:13:43.648Z,80.29
2017-12-29T10:15:10.868Z,80.67
2017-12-29T10:16:38.180Z,80.11
2017-12-29T10:18:05.452Z,80.50
2017-12-29T10:19:32.859Z,80.63
2017-12-29T10:21:00.160Z,80.64
2017-12-29T10:22:31.234Z,81.03
2017-12-29T10:23:54.341Z,80.83
2017-12-29T10:25:25.539Z,80.70
2017-12-29T10:26:48.768Z,80.63
2017-12-29T10:28:20.064Z,80.27
2017-12-29T10:29:43.243Z,80.10
2017-12-29T10:31:10.555Z,80.02
2017-12-29T10:32:37.877Z,80.20
2017-12-29T10:34:05.036Z,80.14
2017-12-29T10:35:32.212Z,80.24
2017-12-29T10:36:59.610Z,79.85
2017-12-29T10:38:30.852Z,80.02
2017-12-29T10:39:58.173Z,80.10
2017-12-29T10:41:25.462Z,80.02
2017-12-29T10:42:48.675Z,79.79
2017-12-29T10:44:15.886Z,79.44
2017-12-29T10:45:47.081Z,79.33
2017-12-29T10:47:10.539Z,79.15
2017-12-29T10:48:41.707Z,79.89
2017-12-29T10:50:04.900Z,79.59
2017-12-29T10:51:36.209Z,79.79
2017-12-29T10:53:03.562Z,80.13
2017-12-29T10:54:26.945Z,80.12
2017-12-29T10:55:58.309Z,80.09
2017-12-29T10:57:25.557Z,80.06
2017-12-29T10:58:52.971Z,79.66
2017-12-29T11:00:20.401Z,79.99
2017-12-29T11:01:47.565Z,79.62
2017-12-29T11:03:14.873Z,79.80
2017-12-29T11:04:42.142Z,79.54
2017-12-29T11:06:05.524Z,79.45
2017-12-29T11:07:32.852Z,79.07
2017-12-29T11:09:03.894Z,78.77
2017-12-29T11:10:26.994Z,78.92
2017-12-29T11:11:54.401Z,78.61
2017-12-29T11:13:21.780Z,78.52
2017-12-29T11:14:53.101Z,78.55
2017-12-29T11:16:16.215Z,78.16
2017-12-29T11:17:47.518Z,78.10
2017-12-29T11:19:10.742Z,78.21
2017-12-29T11:20:41.863Z,78.40
2017-12-29T11:22:04.994Z,78.35
2017-12-29T11:23:36.222Z,78.75
2017-12-29T11:24:59.468Z,78.67
2017-12-29T11:26:30.569Z,79.33
2017-12-29T11:27:53.819Z,79.54
2017-12-29T11:29:21.223Z,79.45
2017-12-29T11:30:48.383Z,79.18
2017-12-29T11:32:15.941Z,78.96
2017-12-29T11:33:47.280Z,79.09
2017-12-29T11:35:10.434Z,78.68
2017-12-29T11:36:37.678Z,77.76
2017-12-29T11:38:04.909Z,77.98
2017-12-29T11:39:36.055Z,78.59
2017-12-29T11:40:59.181Z,78.22
2017-12-29T11:42:26.416Z,78.59
2017-12-29T11:43:57.685Z,78.42
2017-12-29T11:45:20.952Z,78.11
2017-12-29T11:46:52.215Z,78.28
2017-12-29T11:48:15.503Z,78.39
2017-12-29T11:49:42.673Z,78.82
2017-12-29T11:51:13.646Z,78.81
2017-12-29T11:52:37.079Z,78.54
2017-12-29T11:54:08.326Z,78.61
2017-12-29T11:55:35.555Z,78.59
2017-12-29T11:57:02.726Z,78.19
2017-12-29T11:58:26.084Z,78.14
2017-12-29T11:59:53.427Z,78.19
2017-12-29T12:01:24.776Z,78.20
2017-12-29T12:02:47.957Z,77.74
2017-12-29T12:04:19.036Z,77.82
2017-12-29T12:05:46.159Z,77.68
2017-12-29T12:07:09.412Z,77.51
2017-12-29T12:08:36.754Z,77.70
2017-12-29T12:10:03.949Z,78.10
2017-12-29T12:11:35.116Z,77.55
2017-12-29T12:12:58.482Z,77.11
2017-12-29T12:14:29.828Z,77.23
2017-12-29T12:15:53.091Z,77.23
2017-12-29T12:17:20.275Z,77.72
2017-12-29T12:18:51.597Z,77.55
2017-12-29T12:20:14.654Z,77.18
2017-12-29T12:21:46.007Z,77.20
2017-12-29T12:23:09.108Z,77.83
2017-12-29T12:24:36.289Z,78.05
2017-12-29T12:26:07.566Z,77.96
2017-12-29T12:27:34.524Z,77.53
2017-12-29T12:28:57.709Z,77.59
2017-12-29T12:30:25.015Z,77.17
2017-12-29T12:31:56.154Z,77.40
2017-12-29T12:33:19.381Z,77.57
2017-12-29T12:34:46.599Z,77.78
2017-12-29T12:36:13.857Z,77.67
2017-12-29T12:37:44.920Z,77.01
2017-12-29T12:39:08.325Z,77.46
2017-12-29T12:40:35.271Z,77.83
2017-12-29T12:42:02.546Z,78.22
2017-12-29T12:43:33.695Z,78.01
2017-12-29T12:44:56.997Z,78.12
2017-12-29T12:46:24.225Z,78.04
2017-12-29T12:47:51.361Z,77.97
2017-12-29T12:49:18.605Z,78.19
2017-12-29T12:50:45.817Z,77.99
2017-12-29T12:52:13.190Z,78.07
2017-12-29T12:53:40.097Z,78.03
2017-12-29T12:55:07.256Z,77.95
2017-12-29T12:56:34.570Z,78.05
2017-12-29T12:58:01.842Z,77.66
2017-12-29T12:59:29.034Z,78.22
2017-12-29T13:01:00.192Z,77.61
2017-12-29T13:02:27.430Z,77.63
2017-12-29T13:03:54.695Z,77.74
2017-12-29T13:05:22.035Z,77.79
2017-12-29T13:06:45.196Z,77.73
2017-12-29T13:08:12.388Z,77.38
2017-12-29T13:09:43.266Z,77.70
2017-12-29T13:11:06.459Z,77.94
2017-12-29T13:12:33.693Z,77.88
2017-12-29T13:14:00.890Z,78.24
2017-12-29T13:15:32.220Z,77.87
2017-12-29T13:16:55.442Z,77.30
2017-12-29T13:18:22.593Z,76.85
2017-12-29T13:19:50.047Z,77.05
2017-12-29T13:21:21.171Z,77.26
2017-12-29T13:22:48.482Z,76.20
2017-12-29T13:24:11.565Z,76.81
2017-12-29T13:25:38.717Z,77.24
2017-12-29T13:27:05.910Z,77.00
2017-12-29T13:28:33.237Z,77.18
2017-12-29T13:30:04.140Z,77.14
2017-12-29T13:31:27.414Z,77.15
2017-12-29T13:32:54.579Z,76.75
2017-12-29T13:34:21.763Z,76.29
2017-12-29T13:35:48.932Z,75.83
2017-12-29T13:37:16.129Z,76.03
2017-12-29T13:38:43.150Z,76.15
2017-12-29T13:40:14.473Z,76.07
2017-12-29T13:41:37.610Z,75.77
2017-12-29T13:43:05.190Z,76.03
2017-12-29T13:44:32.402Z,76.04
2017-12-29T13:46:03.484Z,76.05
2017-12-29T13:47:30.909Z,75.94
2017-12-29T13:48:58.216Z,76.05
2017-12-29T13:50:21.459Z,76.13
2017-12-29T13:51:52.431Z,75.67
2017-12-29T13:53:15.688Z,75.42
2017-12-29T13:54:46.906Z,74.72
2017-12-29T13:56:10.082Z,74.89
2017-12-29T13:57:41.408Z,74.72
2017-12-29T13:59:04.486Z,74.78
2017-12-29T14:00:31.731Z,74.31
2017-12-29T14:01:58.942Z,74.04
2017-12-29T14:03:30.272Z,73.56
2017-12-29T14:04:53.679Z,73.86
2017-12-29T14:06:20.984Z,73.98
2017-12-29T14:07:48.336Z,73.95
2017-12-29T14:09:15.361Z,74.11
2017-12-29T14:10:42.625Z,74.63
2017-12-29T14:12:09.802Z,74.64
2017-12-29T14:13:37.162Z,74.52
2017-12-29T14:15:04.473Z,74.44
2017-12-29T14:16:31.672Z,74.67
2017-12-29T14:17:58.783Z,74.51
2017-12-29T14:19:29.787Z,74.63
2017-12-29T14:20:53.065Z,75.00
2017-12-29T14:22:20.216Z,75.17
2017-12-29T14:23:51.533Z,75.30
2017-12-29T14:25:18.898Z,75.16
2017-12-29T14:26:46.115Z,75.50
2017-12-29T14:28:13.328Z,75.47
2017-12-29T14:29:36.636Z,75.86
2017-12-29T14:31:04.186Z,75.75
2017-12-29T14:32:30.908Z,75.93
2017-12-29T14:34:02.040Z,76.04
2017-12-29T14:35:25.297Z,76.08
2017-12-29T14:36:52.552Z,76.09
2017-12-29T14:38:19.670Z,76.14
2017-12-29T14:39:46.787Z,76.21
2017-12-29T14:41:13.807Z,76.25
2017-12-29T14:42:44.814Z,76.21
2017-12-29T14:44:07.843Z,76.15
2017-12-29T14:45:34.716Z,76.39
2017-12-29T14:47:05.363Z,76.28
2017-12-29T14:48:28.301Z,76.17
2017-12-29T14:49:52.359Z,76.28
2017-12-29T14:51:19.253Z,76.09
2017-12-29T14:52:54.146Z,76.09
2017-12-29T14:54:20.352Z,76.18
2017-12-29T14:55:43.470Z,76.42
2017-12-29T14:57:10.779Z,76.43
2017-12-29T14:58:41.623Z,76.35
2017-12-29T15:00:04.618Z,76.38
2017-12-29T15:01:35.535Z,76.17
2017-12-29T15:02:58.791Z,76.26
2017-12-29T15:04:29.685Z,76.59
2017-12-29T15:05:56.967Z,76.36
2017-12-29T15:07:24.285Z,76.07
2017-12-29T15:08:51.654Z,75.96
2017-12-29T15:10:14.703Z,75.87
2017-12-29T15:11:46.098Z,75.79
2017-12-29T15:13:13.170Z,75.74
2017-12-29T15:14:36.631Z,75.62
2017-12-29T15:16:03.715Z,75.61
2017-12-29T15:17:30.865Z,75.37
2017-12-29T15:18:55.245Z,75.32
2017-12-29T15:20:29.593Z,75.25
2017-12-29T15:21:56.799Z,75.14
2017-12-29T15:23:23.966Z,74.94
2017-12-29T15:24:47.225Z,75.08
2017-12-29T15:26:11.601Z,75.13
2017-12-29T15:27:38.551Z,75.03
2017-12-29T15:29:08.549Z,75.14
2017-12-29T15:30:35.765Z,75.32
2017-12-29T15:31:59.971Z,75.33
2017-12-29T15:33:30.337Z,75.40
2017-12-29T15:35:01.546Z,75.37
2017-12-29T15:36:24.937Z,75.55
2017-12-29T15:37:52.164Z,75.96
2017-12-29T15:39:19.330Z,75.61
2017-12-29T15:40:46.555Z,75.82
2017-12-29T15:42:13.702Z,75.81
2017-12-29T15:43:40.825Z,75.74
2017-12-29T15:45:08.034Z,75.84
2017-12-29T15:46:39.351Z,75.96
2017-12-29T15:48:02.627Z,76.29
2017-12-29T15:49:29.837Z,76.18
2017-12-29T15:50:57.054Z,76.35
2017-12-29T15:52:24.353Z,76.29
2017-12-29T15:53:51.489Z,76.55
2017-12-29T15:55:22.782Z,76.67
2017-12-29T15:56:46.033Z,76.56
2017-12-29T15:58:13.248Z,76.64
2017-12-29T15:59:40.457Z,76.59
2017-12-29T16:01:07.777Z,76.55
2017-12-29T16:02:34.983Z,76.57
2017-12-29T16:04:02.184Z,76.66
2017-12-29T16:05:33.499Z,76.63
2017-12-29T16:06:53.757Z,76.59
2017-12-29T16:08:27.859Z,76.83
2017-12-29T16:09:54.924Z,76.95
2017-12-29T16:11:22.008Z,76.81
2017-12-29T16:12:45.340Z,76.84
2017-12-29T16:14:16.660Z,76.84
2017-12-29T16:15:43.661Z,76.92
2017-12-29T16:17:03.725Z,76.87
2017-12-29T16:18:38.075Z,76.88
2017-12-29T16:20:05.440Z,76.94
2017-12-29T16:21:32.520Z,77.25
2017-12-29T16:23:00.666Z,76.85
2017-12-29T16:24:22.750Z,76.96
2017-12-29T16:25:49.990Z,77.04
2017-12-29T16:27:17.020Z,77.10
2017-12-29T16:28:44.319Z,77.29
2017-12-29T16:30:11.513Z,77.35
2017-12-29T16:31:38.495Z,77.16
2017-12-29T16:33:09.855Z,77.00
2017-12-29T16:34:37.092Z,76.80
2017-12-29T16:36:00.616Z,76.56
2017-12-29T16:37:31.768Z,76.68
2017-12-29T16:38:51.991Z,76.64
2017-12-29T16:40:26.156Z,76.73
2017-12-29T16:41:53.295Z,76.84
2017-12-29T16:43:20.486Z,77.05
2017-12-29T16:44:43.551Z,77.26
2017-12-29T16:46:10.353Z,77.57
2017-12-29T16:47:41.735Z,77.61
2017-12-29T16:49:08.990Z,77.64
2017-12-29T16:50:36.321Z,77.97
2017-12-29T16:51:56.400Z,78.09
2017-12-29T16:53:30.682Z,78.11
2017-12-29T16:54:57.676Z,78.08
2017-12-29T16:56:20.991Z,78.01
2017-12-29T16:57:48.190Z,78.07
2017-12-29T16:59:15.666Z,78.11
2017-12-29T17:00:42.507Z,77.95
2017-12-29T17:02:13.496Z,77.76
2017-12-29T17:03:40.692Z,77.96
2017-12-29T17:05:03.785Z,77.88
2017-12-29T17:06:31.097Z,77.96
2017-12-29T17:08:02.143Z,78.28
2017-12-29T17:09:25.295Z,78.28
2017-12-29T17:10:52.479Z,78.30
2017-12-29T17:12:19.516Z,78.39
2017-12-29T17:13:50.669Z,78.34
2017-12-29T17:15:14.038Z,78.26
2017-12-29T17:16:41.215Z,78.26
2017-12-29T17:18:08.276Z,78.19
2017-12-29T17:19:35.422Z,78.16
2017-12-29T17:21:02.625Z,78.12
2017-12-29T17:22:29.853Z,77.95
2017-12-29T17:23:57.016Z,78.19
2017-12-29T17:25:28.198Z,78.29
2017-12-29T17:26:51.205Z,78.28
2017-12-29T17:28:18.415Z,78.26
2017-12-29T17:29:49.533Z,78.13
2017-12-29T17:31:16.762Z,78.20
2017-12-29T17:32:40.194Z,78.14
2017-12-29T17:34:07.184Z,78.25
2017-12-29T17:35:38.208Z,78.26
2017-12-29T17:37:05.336Z,78.16
2017-12-29T17:38:32.681Z,78.15
2017-12-29T17:39:55.960Z,78.04
2017-12-29T17:41:23.176Z,78.10
2017-12-29T17:42:50.366Z,77.97
2017-12-29T17:44:17.806Z,78.05
2017-12-29T17:45:48.832Z,78.22
2017-12-29T17:47:15.899Z,77.98
2017-12-29T17:48:38.991Z,78.19
2017-12-29T17:50:10.254Z,78.16
2017-12-29T17:51:37.459Z,78.13
2017-12-29T17:53:00.700Z,77.96
2017-12-29T17:54:27.899Z,77.87
2017-12-29T17:55:55.081Z,77.78
2017-12-29T17:57:26.389Z,77.59
2017-12-29T17:58:49.738Z,77.47
2017-12-29T18:00:20.926Z,77.27
2017-12-29T18:01:44.139Z,77.13
2017-12-29T18:03:11.280Z,77.23
2017-12-29T18:04:42.126Z,77.16
2017-12-29T18:06:09.399Z,77.02
2017-12-29T18:07:32.441Z,77.03
2017-12-29T18:09:03.815Z,77.10
2017-12-29T18:10:27.055Z,76.94
2017-12-29T18:11:58.019Z,76.94
2017-12-29T18:13:21.127Z,76.77
2017-12-29T18:14:52.172Z,76.89
2017-12-29T18:16:19.225Z,76.74
2017-12-29T18:17:42.432Z,76.73
2017-12-29T18:19:09.410Z,76.52
2017-12-29T18:20:40.507Z,76.66
2017-12-29T18:22:07.317Z,76.93
2017-12-29T18:23:30.371Z,76.97
2017-12-29T18:25:01.691Z,76.88
2017-12-29T18:26:28.810Z,77.12
2017-12-29T18:27:57.034Z,77.09
2017-12-29T18:29:23.223Z,77.23
2017-12-29T18:30:50.332Z,77.26
2017-12-29T18:32:13.704Z,77.34
2017-12-29T18:33:40.813Z,77.54
2017-12-29T18:35:08.145Z,77.42
2017-12-29T18:36:35.078Z,77.40
2017-12-29T18:38:02.453Z,77.48
2017-12-29T18:39:33.606Z,77.43
2017-12-29T18:40:56.819Z,77.42
2017-12-29T18:42:28.028Z,77.65